Orbital elements of COSMOS 2251 DEB
| Launched | 15 June 1993 |
| Flight ended | – |
| Launch site | Plesetsk Missile and Space Complex, Russia |
| Owner | Commonwealth of Independent States (former USSR) |
| NORAD ID | 34040 |
| Date fetched |
Epoch osculation |
Inc. [°] |
Ecc. | RA asc node [hr] |
Arg Peri. [°] |
Mean anom [°] |
Mean motion [rev/day] |
Abs. mag |
| Date fetched |
Epoch osculation |
Inc. [°] |
Ecc. | RA asc node [hr] |
Arg Peri. [°] |
Mean anom [°] |
Mean motion [rev/day] |
Abs. mag |
| 2026 May 08 17:57 | 2026 May 05 10:53:12 | 73.9568 | 0.03370 | 12.5512 | 113.8005 | 249.8832 | 13.68942 | – |
| 2026 May 07 17:58 | 2026 May 05 10:53:12 | 73.9568 | 0.03370 | 12.5512 | 113.8005 | 249.8832 | 13.68942 | – |
| 2026 May 06 17:57 | 2026 May 05 10:53:12 | 73.9568 | 0.03370 | 12.5512 | 113.8005 | 249.8832 | 13.68942 | – |
| 2026 May 05 17:57 | 2026 May 05 10:53:12 | 73.9568 | 0.03370 | 12.5512 | 113.8005 | 249.8832 | 13.68942 | – |
| 2026 May 04 17:57 | 2026 Apr 30 06:21:44 | 73.9570 | 0.03375 | 13.1231 | 123.4003 | 249.8832 | 13.68942 | – |
| 2026 May 03 17:57 | 2026 Apr 30 06:21:44 | 73.9570 | 0.03375 | 13.1231 | 123.4003 | 249.8832 | 13.68942 | – |
| 2026 May 02 17:57 | 2026 Apr 30 06:21:44 | 73.9570 | 0.03375 | 13.1231 | 123.4003 | 249.8832 | 13.68942 | – |
| 2026 May 01 17:56 | 2026 Apr 30 06:21:44 | 73.9570 | 0.03375 | 13.1231 | 123.4003 | 249.8832 | 13.68942 | – |
| 2026 Apr 30 17:56 | 2026 Apr 30 06:21:44 | 73.9570 | 0.03375 | 13.1231 | 123.4003 | 249.8832 | 13.68942 | – |
| 2026 Apr 29 17:57 | 2026 Apr 24 06:32:38 | 73.9572 | 0.03380 | 13.7837 | 134.4593 | 249.8832 | 13.68942 | – |
| 2026 Apr 28 17:56 | 2026 Apr 24 06:32:38 | 73.9572 | 0.03380 | 13.7837 | 134.4593 | 249.8832 | 13.68942 | – |
| 2026 Apr 27 17:58 | 2026 Apr 24 06:32:38 | 73.9572 | 0.03380 | 13.7837 | 134.4593 | 249.8832 | 13.68942 | – |
| 2026 Apr 26 17:58 | 2026 Apr 24 06:32:38 | 73.9572 | 0.03380 | 13.7837 | 134.4593 | 249.8832 | 13.68942 | – |
| 2026 Apr 25 17:58 | 2026 Apr 24 06:32:38 | 73.9572 | 0.03380 | 13.7837 | 134.4593 | 249.8832 | 13.68942 | – |
| 2026 Apr 24 17:59 | 2026 Apr 24 06:32:38 | 73.9572 | 0.03380 | 13.7837 | 134.4593 | 249.8832 | 13.68942 | – |
| 2026 Apr 23 17:57 | 2026 Apr 19 07:16:43 | 73.9570 | 0.03384 | 14.3314 | 143.6078 | 249.8832 | 13.68942 | – |
| 2026 Apr 22 17:57 | 2026 Apr 19 07:16:43 | 73.9570 | 0.03384 | 14.3314 | 143.6078 | 249.8832 | 13.68942 | – |
| 2026 Apr 21 17:57 | 2026 Apr 19 07:16:43 | 73.9570 | 0.03384 | 14.3314 | 143.6078 | 249.8832 | 13.68942 | – |
| 2026 Apr 20 17:57 | 2026 Apr 19 07:16:43 | 73.9570 | 0.03384 | 14.3314 | 143.6078 | 249.8832 | 13.68942 | – |
| 2026 Apr 19 17:58 | 2026 Apr 19 07:16:43 | 73.9570 | 0.03384 | 14.3314 | 143.6078 | 249.8832 | 13.68942 | – |
| 2026 Apr 18 17:56 | 2026 Apr 13 02:11:46 | 73.9569 | 0.03388 | 15.0162 | 155.0157 | 249.8832 | 13.68942 | – |
| 2026 Apr 16 17:57 | 2026 Apr 13 02:11:46 | 73.9569 | 0.03388 | 15.0162 | 155.0157 | 249.8832 | 13.68942 | – |
| 2026 Apr 14 17:57 | 2026 Apr 13 02:11:46 | 73.9569 | 0.03388 | 15.0162 | 155.0157 | 249.8832 | 13.68942 | – |
| 2026 Apr 13 17:57 | 2026 Apr 13 02:11:46 | 73.9569 | 0.03388 | 15.0162 | 155.0157 | 249.8832 | 13.68942 | – |
| 2026 Apr 12 17:57 | 2026 Apr 08 15:12:25 | 73.9570 | 0.03390 | 15.5076 | 163.1991 | 249.8832 | 13.68942 | – |
| 2026 Apr 11 17:57 | 2026 Apr 08 15:12:25 | 73.9570 | 0.03390 | 15.5076 | 163.1991 | 249.8832 | 13.68942 | – |